sensor_id;sensor_type;location;lat;lon;timestamp;pressure;altitude;pressure_sealevel;temperature;humidity
64908;BME280;69061;52.236;5.188;2023-04-06T00:00:20;101779.63;;;6.37;61.81
64908;BME280;69061;52.236;5.188;2023-04-06T00:02:47;101775.91;;;6.38;60.83
64908;BME280;69061;52.236;5.188;2023-04-06T00:05:14;101781.50;;;6.36;61.89
64908;BME280;69061;52.236;5.188;2023-04-06T00:07:40;101775.28;;;6.41;60.51
64908;BME280;69061;52.236;5.188;2023-04-06T00:10:08;101771.72;;;6.37;61.20
64908;BME280;69061;52.236;5.188;2023-04-06T00:12:35;101776.84;;;6.42;62.54
64908;BME280;69061;52.236;5.188;2023-04-06T00:15:02;101764.72;;;6.41;60.38
64908;BME280;69061;52.236;5.188;2023-04-06T00:17:32;101763.81;;;6.46;63.48
64908;BME280;69061;52.236;5.188;2023-04-06T00:19:58;101760.84;;;6.56;66.13
64908;BME280;69061;52.236;5.188;2023-04-06T00:22:25;101760.69;;;6.70;65.86
64908;BME280;69061;52.236;5.188;2023-04-06T00:24:51;101754.63;;;6.78;65.29
64908;BME280;69061;52.236;5.188;2023-04-06T00:27:18;101759.41;;;6.94;66.66
64908;BME280;69061;52.236;5.188;2023-04-06T00:29:45;101747.25;;;7.01;65.34
64908;BME280;69061;52.236;5.188;2023-04-06T00:32:11;101744.31;;;7.03;63.23
64908;BME280;69061;52.236;5.188;2023-04-06T00:34:39;101749.59;;;7.03;66.64
64908;BME280;69061;52.236;5.188;2023-04-06T00:37:06;101742.41;;;7.12;65.92
64908;BME280;69061;52.236;5.188;2023-04-06T00:39:32;101740.41;;;7.09;62.62
64908;BME280;69061;52.236;5.188;2023-04-06T00:41:59;101739.97;;;6.98;60.60
64908;BME280;69061;52.236;5.188;2023-04-06T00:44:26;101734.38;;;6.91;62.09
64908;BME280;69061;52.236;5.188;2023-04-06T00:46:53;101739.06;;;6.85;62.94
64908;BME280;69061;52.236;5.188;2023-04-06T00:49:19;101729.72;;;6.88;63.91
64908;BME280;69061;52.236;5.188;2023-04-06T00:51:47;101730.66;;;6.92;64.54
64908;BME280;69061;52.236;5.188;2023-04-06T00:54:14;101725.84;;;6.94;66.14
64908;BME280;69061;52.236;5.188;2023-04-06T00:56:42;101715.91;;;6.82;63.56
64908;BME280;69061;52.236;5.188;2023-04-06T00:59:09;101718.22;;;6.84;63.19
64908;BME280;69061;52.236;5.188;2023-04-06T01:01:36;101713.09;;;6.79;62.24
64908;BME280;69061;52.236;5.188;2023-04-06T01:04:02;101708.94;;;6.69;61.32
64908;BME280;69061;52.236;5.188;2023-04-06T01:06:29;101710.78;;;6.68;61.14
64908;BME280;69061;52.236;5.188;2023-04-06T01:08:57;101706.00;;;6.62;60.14
64908;BME280;69061;52.236;5.188;2023-04-06T01:11:24;101698.69;;;6.58;59.86
64908;BME280;69061;52.236;5.188;2023-04-06T01:13:51;101693.56;;;6.53;63.48
64908;BME280;69061;52.236;5.188;2023-04-06T01:16:18;101699.78;;;6.57;61.35
64908;BME280;69061;52.236;5.188;2023-04-06T01:18:44;101690.31;;;6.56;61.27
64908;BME280;69061;52.236;5.188;2023-04-06T01:21:11;101683.00;;;6.53;62.81
64908;BME280;69061;52.236;5.188;2023-04-06T01:23:43;101694.50;;;6.57;63.68
64908;BME280;69061;52.236;5.188;2023-04-06T01:26:11;101686.25;;;6.68;66.51
64908;BME280;69061;52.236;5.188;2023-04-06T01:28:37;101683.13;;;6.83;66.42
64908;BME280;69061;52.236;5.188;2023-04-06T01:31:05;101675.31;;;6.87;64.75
64908;BME280;69061;52.236;5.188;2023-04-06T01:33:31;101672.50;;;6.92;62.73
64908;BME280;69061;52.236;5.188;2023-04-06T01:35:58;101673.91;;;6.89;60.79
64908;BME280;69061;52.236;5.188;2023-04-06T01:38:24;101677.94;;;6.96;64.36
64908;BME280;69061;52.236;5.188;2023-04-06T01:40:53;101671.69;;;7.09;64.78
64908;BME280;69061;52.236;5.188;2023-04-06T01:43:20;101669.63;;;7.15;63.48
64908;BME280;69061;52.236;5.188;2023-04-06T01:45:47;101663.97;;;7.25;64.88
64908;BME280;69061;52.236;5.188;2023-04-06T01:48:14;101652.13;;;7.31;64.46
64908;BME280;69061;52.236;5.188;2023-04-06T01:50:40;101665.25;;;7.49;64.52
64908;BME280;69061;52.236;5.188;2023-04-06T01:53:07;101662.34;;;7.63;64.82
64908;BME280;69061;52.236;5.188;2023-04-06T01:55:34;101662.50;;;7.66;61.61
64908;BME280;69061;52.236;5.188;2023-04-06T01:58:02;101634.75;;;7.51;60.55
64908;BME280;69061;52.236;5.188;2023-04-06T02:00:28;101641.59;;;7.52;62.34
64908;BME280;69061;52.236;5.188;2023-04-06T02:02:55;101646.22;;;7.55;61.31
64908;BME280;69061;52.236;5.188;2023-04-06T02:05:22;101637.81;;;7.53;59.63
64908;BME280;69061;52.236;5.188;2023-04-06T02:07:48;101643.31;;;7.48;61.04
64908;BME280;69061;52.236;5.188;2023-04-06T02:10:16;101644.41;;;7.47;59.72
64908;BME280;69061;52.236;5.188;2023-04-06T02:12:43;101631.22;;;7.38;57.71
64908;BME280;69061;52.236;5.188;2023-04-06T02:15:11;101620.91;;;7.24;56.45
64908;BME280;69061;52.236;5.188;2023-04-06T02:17:38;101634.59;;;7.27;56.27
64908;BME280;69061;52.236;5.188;2023-04-06T02:20:06;101629.59;;;7.25;56.30
64908;BME280;69061;52.236;5.188;2023-04-06T02:22:33;101622.63;;;7.20;55.97
64908;BME280;69061;52.236;5.188;2023-04-06T02:24:59;101625.91;;;7.17;54.27
64908;BME280;69061;52.236;5.188;2023-04-06T02:27:26;101626.03;;;7.21;54.13
64908;BME280;69061;52.236;5.188;2023-04-06T02:29:53;101617.03;;;7.22;53.65
64908;BME280;69061;52.236;5.188;2023-04-06T02:32:21;101619.63;;;7.31;52.87
64908;BME280;69061;52.236;5.188;2023-04-06T02:34:48;101617.75;;;7.31;52.59
64908;BME280;69061;52.236;5.188;2023-04-06T02:37:14;101612.13;;;7.33;51.98
64908;BME280;69061;52.236;5.188;2023-04-06T02:39:41;101616.78;;;7.36;52.31
64908;BME280;69061;52.236;5.188;2023-04-06T02:42:07;101608.22;;;7.39;51.73
64908;BME280;69061;52.236;5.188;2023-04-06T02:44:35;101609.56;;;7.45;52.63
64908;BME280;69061;52.236;5.188;2023-04-06T02:47:01;101599.16;;;7.40;51.46
64908;BME280;69061;52.236;5.188;2023-04-06T02:49:29;101602.94;;;7.39;52.75
64908;BME280;69061;52.236;5.188;2023-04-06T02:51:56;101596.22;;;7.41;51.73
64908;BME280;69061;52.236;5.188;2023-04-06T02:54:22;101596.34;;;7.45;50.99
64908;BME280;69061;52.236;5.188;2023-04-06T02:56:49;101590.72;;;7.47;51.17
64908;BME280;69061;52.236;5.188;2023-04-06T02:59:16;101588.41;;;7.45;50.84
64908;BME280;69061;52.236;5.188;2023-04-06T03:01:43;101583.59;;;7.47;50.59
64908;BME280;69061;52.236;5.188;2023-04-06T03:04:09;101580.94;;;7.47;50.44
64908;BME280;69061;52.236;5.188;2023-04-06T03:06:37;101586.34;;;7.51;51.14
64908;BME280;69061;52.236;5.188;2023-04-06T03:09:04;101581.94;;;7.55;51.16
64908;BME280;69061;52.236;5.188;2023-04-06T03:11:30;101582.75;;;7.55;51.19
64908;BME280;69061;52.236;5.188;2023-04-06T03:13:57;101575.91;;;7.54;50.42
64908;BME280;69061;52.236;5.188;2023-04-06T03:16:24;101570.59;;;7.54;49.75
64908;BME280;69061;52.236;5.188;2023-04-06T03:18:51;101574.81;;;7.55;50.09
64908;BME280;69061;52.236;5.188;2023-04-06T03:21:17;101569.84;;;7.54;49.84
64908;BME280;69061;52.236;5.188;2023-04-06T03:23:46;101570.59;;;7.54;51.24
64908;BME280;69061;52.236;5.188;2023-04-06T03:26:16;101568.84;;;7.58;51.81
64908;BME280;69061;52.236;5.188;2023-04-06T03:28:42;101568.22;;;7.62;51.25
64908;BME280;69061;52.236;5.188;2023-04-06T03:31:09;101566.34;;;7.62;51.25
64908;BME280;69061;52.236;5.188;2023-04-06T03:33:35;101562.28;;;7.65;51.47
64908;BME280;69061;52.236;5.188;2023-04-06T03:36:02;101563.19;;;7.69;50.70
64908;BME280;69061;52.236;5.188;2023-04-06T03:38:29;101551.25;;;7.63;50.58
64908;BME280;69061;52.236;5.188;2023-04-06T03:40:57;101550.16;;;7.64;50.83
64908;BME280;69061;52.236;5.188;2023-04-06T03:43:24;101548.59;;;7.63;51.16
64908;BME280;69061;52.236;5.188;2023-04-06T03:45:53;101542.88;;;7.61;51.48
64908;BME280;69061;52.236;5.188;2023-04-06T03:48:20;101549.97;;;7.69;52.58
64908;BME280;69061;52.236;5.188;2023-04-06T03:50:47;101544.66;;;7.69;50.86
64908;BME280;69061;52.236;5.188;2023-04-06T03:53:13;101544.66;;;7.69;50.74
64908;BME280;69061;52.236;5.188;2023-04-06T03:55:40;101527.09;;;7.64;50.93
64908;BME280;69061;52.236;5.188;2023-04-06T03:58:08;101540.47;;;7.68;50.81
64908;BME280;69061;52.236;5.188;2023-04-06T04:00:34;101541.75;;;7.62;50.33
64908;BME280;69061;52.236;5.188;2023-04-06T04:03:01;101545.72;;;7.55;50.82
64908;BME280;69061;52.236;5.188;2023-04-06T04:05:28;101538.22;;;7.57;52.95
64908;BME280;69061;52.236;5.188;2023-04-06T04:07:54;101537.13;;;7.58;51.15
64908;BME280;69061;52.236;5.188;2023-04-06T04:10:21;101541.97;;;7.56;51.28
64908;BME280;69061;52.236;5.188;2023-04-06T04:12:48;101548.34;;;7.55;52.27
64908;BME280;69061;52.236;5.188;2023-04-06T04:15:18;101542.34;;;7.46;51.59
64908;BME280;69061;52.236;5.188;2023-04-06T04:17:44;101534.28;;;7.42;51.70
64908;BME280;69061;52.236;5.188;2023-04-06T04:20:14;101537.41;;;7.45;51.38
64908;BME280;69061;52.236;5.188;2023-04-06T04:22:41;101534.88;;;7.48;51.13
64908;BME280;69061;52.236;5.188;2023-04-06T04:25:09;101536.59;;;7.44;51.87
64908;BME280;69061;52.236;5.188;2023-04-06T04:27:35;101536.31;;;7.46;53.75
64908;BME280;69061;52.236;5.188;2023-04-06T04:30:02;101534.34;;;7.55;52.04
64908;BME280;69061;52.236;5.188;2023-04-06T04:32:30;101539.44;;;7.60;52.11
64908;BME280;69061;52.236;5.188;2023-04-06T04:34:57;101534.16;;;7.60;51.30
64908;BME280;69061;52.236;5.188;2023-04-06T04:37:23;101527.84;;;7.52;51.18
64908;BME280;69061;52.236;5.188;2023-04-06T04:39:50;101533.72;;;7.58;51.15
64908;BME280;69061;52.236;5.188;2023-04-06T04:42:16;101530.16;;;7.54;51.53
64908;BME280;69061;52.236;5.188;2023-04-06T04:44:43;101532.03;;;7.53;51.04
64908;BME280;69061;52.236;5.188;2023-04-06T04:47:10;101529.03;;;7.55;51.51
64908;BME280;69061;52.236;5.188;2023-04-06T04:49:38;101531.16;;;7.62;50.66
64908;BME280;69061;52.236;5.188;2023-04-06T04:52:04;101525.19;;;7.52;53.90
64908;BME280;69061;52.236;5.188;2023-04-06T04:54:31;101525.63;;;7.54;52.81
64908;BME280;69061;52.236;5.188;2023-04-06T04:56:57;101517.84;;;7.58;51.88
64908;BME280;69061;52.236;5.188;2023-04-06T04:59:24;101524.53;;;7.55;51.98
64908;BME280;69061;52.236;5.188;2023-04-06T05:01:51;101521.91;;;7.55;51.81
64908;BME280;69061;52.236;5.188;2023-04-06T05:04:18;101509.91;;;7.37;51.72
64908;BME280;69061;52.236;5.188;2023-04-06T05:06:46;101508.69;;;7.34;51.55
64908;BME280;69061;52.236;5.188;2023-04-06T05:09:13;101525.41;;;7.47;51.65
64908;BME280;69061;52.236;5.188;2023-04-06T05:11:39;101515.78;;;7.42;51.51
64908;BME280;69061;52.236;5.188;2023-04-06T05:14:06;101514.75;;;7.35;51.48
64908;BME280;69061;52.236;5.188;2023-04-06T05:16:33;101506.38;;;7.33;51.24
64908;BME280;69061;52.236;5.188;2023-04-06T05:19:00;101517.69;;;7.33;52.17
64908;BME280;69061;52.236;5.188;2023-04-06T05:21:27;101520.16;;;7.38;52.32
64908;BME280;69061;52.236;5.188;2023-04-06T05:23:55;101517.47;;;7.47;51.49
64908;BME280;69061;52.236;5.188;2023-04-06T05:26:21;101511.84;;;7.49;51.59
64908;BME280;69061;52.236;5.188;2023-04-06T05:28:48;101518.22;;;7.48;52.90
64908;BME280;69061;52.236;5.188;2023-04-06T05:31:15;101515.06;;;7.54;52.99
64908;BME280;69061;52.236;5.188;2023-04-06T05:33:41;101513.31;;;7.58;51.73
64908;BME280;69061;52.236;5.188;2023-04-06T05:36:08;101514.53;;;7.61;52.23
64908;BME280;69061;52.236;5.188;2023-04-06T05:38:35;101511.81;;;7.70;53.36
64908;BME280;69061;52.236;5.188;2023-04-06T05:41:03;101515.13;;;7.79;54.41
64908;BME280;69061;52.236;5.188;2023-04-06T05:43:29;101509.91;;;7.91;53.06
64908;BME280;69061;52.236;5.188;2023-04-06T05:45:56;101510.34;;;7.93;52.71
64908;BME280;69061;52.236;5.188;2023-04-06T05:48:22;101516.00;;;8.04;52.36
64908;BME280;69061;52.236;5.188;2023-04-06T05:50:51;101515.44;;;8.11;52.80
64908;BME280;69061;52.236;5.188;2023-04-06T05:53:18;101511.03;;;8.15;52.13
64908;BME280;69061;52.236;5.188;2023-04-06T05:55:46;101504.19;;;8.14;51.43
64908;BME280;69061;52.236;5.188;2023-04-06T05:58:14;101519.00;;;8.15;51.92
64908;BME280;69061;52.236;5.188;2023-04-06T06:00:42;101518.00;;;8.20;52.10
64908;BME280;69061;52.236;5.188;2023-04-06T06:03:11;101508.28;;;8.24;51.57
64908;BME280;69061;52.236;5.188;2023-04-06T06:05:38;101508.06;;;8.29;52.00
64908;BME280;69061;52.236;5.188;2023-04-06T06:08:04;101508.97;;;8.33;51.68
64908;BME280;69061;52.236;5.188;2023-04-06T06:10:31;101511.72;;;8.37;53.15
64908;BME280;69061;52.236;5.188;2023-04-06T06:12:58;101517.25;;;8.44;54.97
64908;BME280;69061;52.236;5.188;2023-04-06T06:15:26;101514.19;;;8.54;52.59
64908;BME280;69061;52.236;5.188;2023-04-06T06:17:52;101516.19;;;8.57;51.88
64908;BME280;69061;52.236;5.188;2023-04-06T06:20:19;101508.78;;;8.63;51.72
64908;BME280;69061;52.236;5.188;2023-04-06T06:22:45;101510.78;;;8.66;50.81
64908;BME280;69061;52.236;5.188;2023-04-06T06:25:12;101516.16;;;8.70;51.86
64908;BME280;69061;52.236;5.188;2023-04-06T06:27:39;101504.59;;;8.74;51.00
64908;BME280;69061;52.236;5.188;2023-04-06T06:30:06;101512.41;;;8.71;50.90
64908;BME280;69061;52.236;5.188;2023-04-06T06:32:34;101510.31;;;8.76;50.23
64908;BME280;69061;52.236;5.188;2023-04-06T06:35:01;101510.66;;;8.75;51.37
64908;BME280;69061;52.236;5.188;2023-04-06T06:37:28;101509.31;;;8.81;50.65
64908;BME280;69061;52.236;5.188;2023-04-06T06:39:54;101519.72;;;8.86;51.37
64908;BME280;69061;52.236;5.188;2023-04-06T06:42:21;101519.38;;;8.88;51.28
64908;BME280;69061;52.236;5.188;2023-04-06T06:44:47;101518.91;;;8.98;51.77
64908;BME280;69061;52.236;5.188;2023-04-06T06:47:14;101510.50;;;9.08;52.63
64908;BME280;69061;52.236;5.188;2023-04-06T06:49:42;101515.03;;;9.08;51.98
64908;BME280;69061;52.236;5.188;2023-04-06T06:52:08;101514.69;;;9.09;51.19
64908;BME280;69061;52.236;5.188;2023-04-06T06:54:35;101507.53;;;8.98;50.98
64908;BME280;69061;52.236;5.188;2023-04-06T06:57:02;101511.63;;;8.95;50.65
64908;BME280;69061;52.236;5.188;2023-04-06T06:59:28;101511.63;;;8.95;51.46
64908;BME280;69061;52.236;5.188;2023-04-06T07:01:55;101504.44;;;8.96;51.91
64908;BME280;69061;52.236;5.188;2023-04-06T07:04:21;101501.56;;;9.01;51.41
64908;BME280;69061;52.236;5.188;2023-04-06T07:06:49;101500.69;;;8.97;51.37
64908;BME280;69061;52.236;5.188;2023-04-06T07:09:16;101498.81;;;8.97;50.81
64908;BME280;69061;52.236;5.188;2023-04-06T07:11:43;101495.50;;;9.00;52.14
64908;BME280;69061;52.236;5.188;2023-04-06T07:14:09;101499.91;;;8.96;51.69
64908;BME280;69061;52.236;5.188;2023-04-06T07:16:36;101498.91;;;9.01;51.37
64908;BME280;69061;52.236;5.188;2023-04-06T07:19:03;101491.94;;;9.08;51.94
64908;BME280;69061;52.236;5.188;2023-04-06T07:21:30;101494.00;;;9.15;52.47
64908;BME280;69061;52.236;5.188;2023-04-06T07:23:57;101495.75;;;9.23;54.32
64908;BME280;69061;52.236;5.188;2023-04-06T07:26:24;101489.19;;;9.33;53.21
64908;BME280;69061;52.236;5.188;2023-04-06T07:28:51;101492.59;;;9.46;52.78
64908;BME280;69061;52.236;5.188;2023-04-06T07:31:17;101490.28;;;9.44;51.50
64908;BME280;69061;52.236;5.188;2023-04-06T07:33:44;101478.44;;;9.42;51.54
64908;BME280;69061;52.236;5.188;2023-04-06T07:36:10;101489.25;;;9.49;51.86
64908;BME280;69061;52.236;5.188;2023-04-06T07:38:37;101486.69;;;9.53;52.74
64908;BME280;69061;52.236;5.188;2023-04-06T07:41:05;101484.91;;;9.57;52.01
64908;BME280;69061;52.236;5.188;2023-04-06T07:43:31;101482.78;;;9.63;52.13
64908;BME280;69061;52.236;5.188;2023-04-06T07:45:58;101478.41;;;9.54;51.42
64908;BME280;69061;52.236;5.188;2023-04-06T07:48:25;101487.91;;;9.55;51.87
64908;BME280;69061;52.236;5.188;2023-04-06T07:50:54;101485.44;;;9.63;51.28
64908;BME280;69061;52.236;5.188;2023-04-06T07:53:26;101489.00;;;9.54;51.37
64908;BME280;69061;52.236;5.188;2023-04-06T07:55:53;101485.66;;;9.57;52.17
64908;BME280;69061;52.236;5.188;2023-04-06T07:58:22;101489.44;;;9.56;51.73
64908;BME280;69061;52.236;5.188;2023-04-06T08:00:48;101493.63;;;9.57;51.98
64908;BME280;69061;52.236;5.188;2023-04-06T08:03:15;101487.41;;;9.66;51.75
64908;BME280;69061;52.236;5.188;2023-04-06T08:05:42;101487.91;;;9.71;52.63
64908;BME280;69061;52.236;5.188;2023-04-06T08:08:09;101485.81;;;9.77;51.75
64908;BME280;69061;52.236;5.188;2023-04-06T08:10:35;101485.88;;;9.81;52.70
64908;BME280;69061;52.236;5.188;2023-04-06T08:13:02;101486.22;;;9.79;52.02
64908;BME280;69061;52.236;5.188;2023-04-06T08:15:30;101492.59;;;9.90;51.93
64908;BME280;69061;52.236;5.188;2023-04-06T08:17:56;101487.09;;;9.99;53.22
64908;BME280;69061;52.236;5.188;2023-04-06T08:20:23;101477.09;;;10.08;51.62
64908;BME280;69061;52.236;5.188;2023-04-06T08:22:49;101478.19;;;10.07;51.73
64908;BME280;69061;52.236;5.188;2023-04-06T08:25:16;101480.25;;;10.14;52.76
64908;BME280;69061;52.236;5.188;2023-04-06T08:27:43;101484.63;;;10.22;53.40
64908;BME280;69061;52.236;5.188;2023-04-06T08:30:09;101482.13;;;10.29;52.59
64908;BME280;69061;52.236;5.188;2023-04-06T08:32:37;101471.50;;;10.45;52.20
64908;BME280;69061;52.236;5.188;2023-04-06T08:35:06;101465.22;;;10.54;51.56
64908;BME280;69061;52.236;5.188;2023-04-06T08:37:33;101473.06;;;10.47;51.48
64908;BME280;69061;52.236;5.188;2023-04-06T08:40:00;101470.97;;;10.56;52.21
64908;BME280;69061;52.236;5.188;2023-04-06T08:42:32;101467.63;;;10.59;52.69
64908;BME280;69061;52.236;5.188;2023-04-06T08:44:59;101469.66;;;10.66;52.42
64908;BME280;69061;52.236;5.188;2023-04-06T08:47:27;101458.41;;;10.72;51.73
64908;BME280;69061;52.236;5.188;2023-04-06T08:49:55;101457.59;;;10.88;50.66
64908;BME280;69061;52.236;5.188;2023-04-06T08:52:23;101458.22;;;10.81;51.31
64908;BME280;69061;52.236;5.188;2023-04-06T08:54:51;101462.38;;;10.98;51.44
64908;BME280;69061;52.236;5.188;2023-04-06T08:57:19;101467.81;;;11.05;51.00
64908;BME280;69061;52.236;5.188;2023-04-06T08:59:46;101465.59;;;11.07;50.38
64908;BME280;69061;52.236;5.188;2023-04-06T09:02:17;101463.78;;;11.11;50.62
64908;BME280;69061;52.236;5.188;2023-04-06T09:04:45;101466.00;;;11.09;50.81
64908;BME280;69061;52.236;5.188;2023-04-06T09:07:14;101473.97;;;11.09;51.79
64908;BME280;69061;52.236;5.188;2023-04-06T09:09:41;101473.34;;;11.16;51.79
64908;BME280;69061;52.236;5.188;2023-04-06T09:12:22;101470.06;;;11.23;51.98
64908;BME280;69061;52.236;5.188;2023-04-06T09:14:48;101484.22;;;11.07;52.26
64908;BME280;69061;52.236;5.188;2023-04-06T09:17:20;101486.91;;;10.91;53.29
64908;BME280;69061;52.236;5.188;2023-04-06T09:19:47;101483.16;;;10.92;53.36
64908;BME280;69061;52.236;5.188;2023-04-06T09:22:16;101485.47;;;10.94;53.15
64908;BME280;69061;52.236;5.188;2023-04-06T09:24:44;101484.06;;;11.00;54.30
64908;BME280;69061;52.236;5.188;2023-04-06T09:27:10;101482.53;;;10.99;54.63
64908;BME280;69061;52.236;5.188;2023-04-06T09:29:37;101475.75;;;11.02;54.50
64908;BME280;69061;52.236;5.188;2023-04-06T09:32:04;101483.44;;;11.07;55.30
64908;BME280;69061;52.236;5.188;2023-04-06T09:34:31;101487.00;;;11.15;54.98
64908;BME280;69061;52.236;5.188;2023-04-06T09:36:58;101484.91;;;11.04;55.42
64908;BME280;69061;52.236;5.188;2023-04-06T09:39:26;101481.81;;;11.02;56.19
64908;BME280;69061;52.236;5.188;2023-04-06T09:41:53;101485.88;;;10.96;56.68
64908;BME280;69061;52.236;5.188;2023-04-06T09:44:21;101485.47;;;10.94;57.23
64908;BME280;69061;52.236;5.188;2023-04-06T09:46:49;101484.25;;;10.91;57.85
64908;BME280;69061;52.236;5.188;2023-04-06T09:49:15;101490.69;;;10.90;58.01
64908;BME280;69061;52.236;5.188;2023-04-06T09:51:45;101487.81;;;10.79;59.70
64908;BME280;69061;52.236;5.188;2023-04-06T09:54:18;101492.81;;;10.81;60.02
64908;BME280;69061;52.236;5.188;2023-04-06T09:56:51;101500.69;;;10.77;60.95
64908;BME280;69061;52.236;5.188;2023-04-06T09:59:29;101488.09;;;10.74;61.10
64908;BME280;69061;52.236;5.188;2023-04-06T10:01:58;101486.56;;;10.73;60.57
64908;BME280;69061;52.236;5.188;2023-04-06T10:04:37;101486.38;;;10.66;61.07
64908;BME280;69061;52.236;5.188;2023-04-06T10:07:06;101476.09;;;10.65;61.39
64908;BME280;69061;52.236;5.188;2023-04-06T10:09:35;101489.38;;;10.65;61.20
64908;BME280;69061;52.236;5.188;2023-04-06T10:12:05;101488.28;;;10.66;62.26
64908;BME280;69061;52.236;5.188;2023-04-06T10:14:33;101486.19;;;10.75;61.87
64908;BME280;69061;52.236;5.188;2023-04-06T10:17:02;101489.72;;;10.79;61.91
64908;BME280;69061;52.236;5.188;2023-04-06T10:19:44;101493.81;;;10.76;61.73
64908;BME280;69061;52.236;5.188;2023-04-06T10:22:18;101483.81;;;10.70;61.85
64908;BME280;69061;52.236;5.188;2023-04-06T10:24:47;101485.75;;;10.73;62.98
64908;BME280;69061;52.236;5.188;2023-04-06T10:27:15;101486.69;;;10.81;62.66
64908;BME280;69061;52.236;5.188;2023-04-06T10:29:44;101481.47;;;10.84;63.61
64908;BME280;69061;52.236;5.188;2023-04-06T10:32:11;101484.38;;;10.79;63.77
64908;BME280;69061;52.236;5.188;2023-04-06T10:34:38;101477.53;;;10.78;63.38
64908;BME280;69061;52.236;5.188;2023-04-06T10:37:12;101468.88;;;10.81;64.34
64908;BME280;69061;52.236;5.188;2023-04-06T10:39:46;101479.91;;;10.83;64.63
64908;BME280;69061;52.236;5.188;2023-04-06T10:42:14;101480.44;;;10.73;65.20
64908;BME280;69061;52.236;5.188;2023-04-06T10:44:44;101462.19;;;10.71;65.52
64908;BME280;69061;52.236;5.188;2023-04-06T10:47:16;101472.47;;;10.73;66.11
64908;BME280;69061;52.236;5.188;2023-04-06T10:49:44;101463.25;;;10.67;65.79
64908;BME280;69061;52.236;5.188;2023-04-06T10:52:10;101474.22;;;10.65;66.28
64908;BME280;69061;52.236;5.188;2023-04-06T10:54:41;101460.00;;;10.57;67.46
64908;BME280;69061;52.236;5.188;2023-04-06T10:57:08;101453.41;;;10.51;67.50
64908;BME280;69061;52.236;5.188;2023-04-06T10:59:36;101453.41;;;10.51;68.08
64908;BME280;69061;52.236;5.188;2023-04-06T11:02:03;101455.75;;;10.37;68.43
64908;BME280;69061;52.236;5.188;2023-04-06T11:04:29;101442.63;;;10.28;69.32
64908;BME280;69061;52.236;5.188;2023-04-06T11:06:56;101448.53;;;10.21;69.61
64908;BME280;69061;52.236;5.188;2023-04-06T11:09:24;101444.88;;;10.10;70.17
64908;BME280;69061;52.236;5.188;2023-04-06T11:11:53;101449.41;;;9.93;71.29
64908;BME280;69061;52.236;5.188;2023-04-06T11:14:20;101435.44;;;9.97;72.11
64908;BME280;69061;52.236;5.188;2023-04-06T11:16:48;101428.44;;;9.88;72.20
64908;BME280;69061;52.236;5.188;2023-04-06T11:19:15;101438.34;;;9.91;73.49
64908;BME280;69061;52.236;5.188;2023-04-06T11:21:44;101438.78;;;9.93;73.13
64908;BME280;69061;52.236;5.188;2023-04-06T11:24:13;101432.19;;;9.87;74.04
64908;BME280;69061;52.236;5.188;2023-04-06T11:26:41;101431.25;;;9.80;74.97
64908;BME280;69061;52.236;5.188;2023-04-06T11:29:09;101430.22;;;9.84;75.38
64908;BME280;69061;52.236;5.188;2023-04-06T11:31:43;101429.63;;;9.75;76.73
64908;BME280;69061;52.236;5.188;2023-04-06T11:34:15;101427.22;;;9.86;75.44
64908;BME280;69061;52.236;5.188;2023-04-06T11:36:43;101422.50;;;9.79;75.34
64908;BME280;69061;52.236;5.188;2023-04-06T11:39:10;101430.91;;;9.81;75.95
64908;BME280;69061;52.236;5.188;2023-04-06T11:41:37;101419.50;;;9.81;76.10
64908;BME280;69061;52.236;5.188;2023-04-06T11:44:05;101423.47;;;9.87;76.28
64908;BME280;69061;52.236;5.188;2023-04-06T11:46:31;101420.56;;;9.76;76.56
64908;BME280;69061;52.236;5.188;2023-04-06T11:48:59;101418.75;;;9.80;76.58
64908;BME280;69061;52.236;5.188;2023-04-06T11:51:27;101400.25;;;9.84;76.17
64908;BME280;69061;52.236;5.188;2023-04-06T11:53:54;101409.16;;;9.75;76.67
64908;BME280;69061;52.236;5.188;2023-04-06T11:56:25;101408.38;;;9.75;78.13
64908;BME280;69061;52.236;5.188;2023-04-06T11:58:52;101403.44;;;9.89;77.11
64908;BME280;69061;52.236;5.188;2023-04-06T12:01:18;101403.50;;;9.93;76.59
64908;BME280;69061;52.236;5.188;2023-04-06T12:03:45;101401.28;;;9.95;77.36
64908;BME280;69061;52.236;5.188;2023-04-06T12:06:11;101408.28;;;10.03;77.11
64908;BME280;69061;52.236;5.188;2023-04-06T12:08:39;101403.75;;;10.04;77.69
64908;BME280;69061;52.236;5.188;2023-04-06T12:11:06;101391.25;;;10.04;77.36
64908;BME280;69061;52.236;5.188;2023-04-06T12:13:32;101402.38;;;10.10;77.56
64908;BME280;69061;52.236;5.188;2023-04-06T12:15:59;101387.53;;;10.09;77.43
64908;BME280;69061;52.236;5.188;2023-04-06T12:18:26;101394.50;;;9.98;78.70
64908;BME280;69061;52.236;5.188;2023-04-06T12:20:52;101398.78;;;10.02;78.54
64908;BME280;69061;52.236;5.188;2023-04-06T12:23:19;101396.91;;;10.03;79.35
64908;BME280;69061;52.236;5.188;2023-04-06T12:25:47;101398.00;;;10.02;79.29
64908;BME280;69061;52.236;5.188;2023-04-06T12:28:13;101392.72;;;10.02;79.09
64908;BME280;69061;52.236;5.188;2023-04-06T12:30:40;101398.53;;;10.07;79.34
64908;BME280;69061;52.236;5.188;2023-04-06T12:33:07;101389.03;;;9.90;80.52
64908;BME280;69061;52.236;5.188;2023-04-06T12:35:34;101388.75;;;9.95;79.78
64908;BME280;69061;52.236;5.188;2023-04-06T12:38:00;101389.09;;;9.94;80.15
64908;BME280;69061;52.236;5.188;2023-04-06T12:40:27;101396.66;;;9.92;80.21
64908;BME280;69061;52.236;5.188;2023-04-06T12:42:55;101389.28;;;9.85;80.15
64908;BME280;69061;52.236;5.188;2023-04-06T12:45:21;101386.38;;;9.74;80.57
64908;BME280;69061;52.236;5.188;2023-04-06T12:47:48;101375.34;;;9.72;80.40
64908;BME280;69061;52.236;5.188;2023-04-06T12:50:15;101380.13;;;9.67;80.98
64908;BME280;69061;52.236;5.188;2023-04-06T12:52:41;101378.22;;;9.67;80.81
64908;BME280;69061;52.236;5.188;2023-04-06T12:55:08;101371.06;;;9.68;80.40
64908;BME280;69061;52.236;5.188;2023-04-06T12:57:35;101377.91;;;9.69;81.26